Terminal Aerodrome Forecast
Issued by NWS Duluth, MN

Home | Current Version | Previous Version | Text Only | Print | Product List | Glossary On
Versions: 1 2 3 4 5 6 7 8 9 10 11 12 13 14 15 16
019
FTUS43 KDLH 242342
TAFINL
TAF
KINL 242342Z 2500/2524 28009G15KT P6SM VCSH BKN060
     FM250100 28007KT P6SM BKN060
      TEMPO 2501/2503 6SM -SHRA BKN040
     FM250600 29004KT P6SM SCT060
     FM251600 28010G15KT P6SM SCT050=

USA.gov is the U.S. government's official web portal to all federal, state and local government web resources and services.